createdAt,value
2023-02-13T00:01:27.436Z,102971.00
2023-02-13T00:03:55.940Z,102970.16
2023-02-13T00:06:25.802Z,102972.81
2023-02-13T00:08:54.264Z,102963.28
2023-02-13T00:11:22.766Z,102965.94
2023-02-13T00:13:51.171Z,102970.34
2023-02-13T00:16:20.550Z,102967.72
2023-02-13T00:18:48.977Z,102970.31
2023-02-13T00:21:17.426Z,102966.78
2023-02-13T00:23:48.210Z,102961.50
2023-02-13T00:26:18.358Z,102956.41
2023-02-13T00:28:48.520Z,102956.41
2023-02-13T00:31:19.016Z,102919.81
2023-02-13T00:33:47.568Z,102954.66
2023-02-13T00:36:18.234Z,102959.81
2023-02-13T00:38:48.651Z,102962.47
2023-02-13T00:41:17.937Z,102958.13
2023-02-13T00:43:46.955Z,102951.97
2023-02-13T00:46:15.943Z,102945.06
2023-02-13T00:48:45.578Z,102952.00
2023-02-13T00:51:14.201Z,102953.78
2023-02-13T00:53:42.628Z,102959.03
2023-02-13T00:56:12.516Z,102958.22
2023-02-13T00:58:40.977Z,102958.28
2023-02-13T01:01:09.484Z,102957.47
2023-02-13T01:03:38.103Z,102954.88
2023-02-13T01:06:07.429Z,102956.63
2023-02-13T01:08:35.947Z,102961.88
2023-02-13T01:11:04.395Z,102964.50
2023-02-13T01:13:34.496Z,102967.97
2023-02-13T01:16:02.963Z,102967.09
2023-02-13T01:18:31.635Z,102974.09
2023-02-13T01:21:02.175Z,102787.09
2023-02-13T01:23:34.217Z,102973.22
2023-02-13T01:26:04.569Z,102972.34
2023-02-13T01:28:34.808Z,102975.00
2023-02-13T01:31:03.769Z,102974.19
2023-02-13T01:33:32.334Z,102972.44
2023-02-13T01:36:00.767Z,102975.09
2023-02-13T01:38:29.693Z,102974.25
2023-02-13T01:40:59.277Z,102976.84
2023-02-13T01:43:46.777Z,102984.75
2023-02-13T01:46:19.189Z,102942.06
2023-02-13T01:48:50.819Z,102979.53
2023-02-13T01:51:24.562Z,102979.53
2023-02-13T01:53:59.897Z,102984.78
2023-02-13T01:56:34.613Z,102961.22
2023-02-13T01:59:09.794Z,102940.31
2023-02-13T02:01:38.722Z,102982.94
2023-02-13T02:04:11.669Z,102982.06
2023-02-13T02:06:45.570Z,102977.69
2023-02-13T02:09:27.096Z,102985.56
2023-02-13T02:12:02.024Z,102941.25
2023-02-13T02:14:32.582Z,102982.16
2023-02-13T02:17:01.015Z,102986.53
2023-02-13T02:19:39.500Z,102958.63
2023-02-13T02:22:43.172Z,102979.50
2023-02-13T02:25:42.806Z,102987.41
2023-02-13T02:28:45.057Z,102983.03
2023-02-13T02:31:55.396Z,102988.28
2023-02-13T02:34:38.624Z,102989.22
2023-02-13T02:37:17.812Z,102990.06
2023-02-13T02:39:58.367Z,102975.25
2023-02-13T02:42:36.412Z,102984.03
2023-02-13T02:45:13.305Z,102980.56
2023-02-13T02:48:07.677Z,102985.84
2023-02-13T02:50:43.079Z,102973.69
2023-02-13T02:53:26.600Z,102978.00
2023-02-13T02:56:03.212Z,102982.38
2023-02-13T02:58:56.892Z,102980.63
2023-02-13T03:01:49.354Z,102980.63
2023-02-13T03:04:39.237Z,102939.75
2023-02-13T03:07:13.210Z,102978.06
2023-02-13T03:10:01.689Z,102978.03
2023-02-13T03:12:59.761Z,102936.25
2023-02-13T03:15:30.162Z,102977.16
2023-02-13T03:18:17.872Z,102978.91
2023-02-13T03:21:10.540Z,102977.16
2023-02-13T03:23:50.866Z,102981.56
2023-02-13T03:26:50.757Z,102984.13
2023-02-13T03:29:55.293Z,102977.13
2023-02-13T03:32:29.442Z,102986.75
2023-02-13T03:35:31.122Z,102986.78
2023-02-13T03:38:05.703Z,102982.44
2023-02-13T03:41:02.877Z,102981.56
2023-02-13T03:43:37.057Z,102979.84
2023-02-13T03:46:06.898Z,102994.69
2023-02-13T03:48:56.436Z,102988.59
2023-02-13T03:51:30.749Z,102981.63
2023-02-13T03:54:03.499Z,102993.81
2023-02-13T03:56:53.451Z,102991.22
2023-02-13T03:59:28.069Z,102992.97
2023-02-13T04:02:06.247Z,102991.22
2023-02-13T04:04:45.185Z,102992.94
2023-02-13T04:07:29.787Z,103000.81
2023-02-13T04:10:00.696Z,103002.56
2023-02-13T04:12:40.382Z,103003.44
2023-02-13T04:15:16.010Z,103006.09
2023-02-13T04:17:48.472Z,103008.72
2023-02-13T04:20:17.394Z,103006.97
2023-02-13T04:22:46.363Z,103009.59
2023-02-13T04:25:16.854Z,103003.50
2023-02-13T04:27:46.759Z,103005.28
2023-02-13T04:30:15.998Z,103009.66
2023-02-13T04:32:44.553Z,103020.97
2023-02-13T04:35:13.879Z,103022.72
2023-02-13T04:37:42.364Z,103020.97
2023-02-13T04:40:11.822Z,103027.94
2023-02-13T04:42:40.294Z,103031.41
2023-02-13T04:45:11.468Z,103036.69
2023-02-13T04:47:39.917Z,103038.38
2023-02-13T04:50:09.533Z,103039.25
2023-02-13T04:52:37.982Z,103041.88
2023-02-13T04:55:07.009Z,103036.66
2023-02-13T04:57:35.444Z,103049.75
2023-02-13T05:00:04.114Z,103036.56
2023-02-13T05:02:34.195Z,103043.63
2023-02-13T05:05:02.625Z,103042.75
2023-02-13T05:07:30.984Z,103041.88
2023-02-13T05:09:59.395Z,103034.91
2023-02-13T05:12:27.950Z,103043.63
2023-02-13T05:14:56.306Z,103047.97
2023-02-13T05:17:27.265Z,103038.38
2023-02-13T05:19:59.345Z,103028.78
2023-02-13T05:22:45.280Z,103052.34
2023-02-13T05:25:13.673Z,103046.25
2023-02-13T05:27:42.143Z,103051.47
2023-02-13T05:30:11.598Z,103053.25
2023-02-13T05:32:40.282Z,103048.88
2023-02-13T05:35:10.737Z,103050.59
2023-02-13T05:37:39.161Z,103052.38
2023-02-13T05:40:09.047Z,103055.00
2023-02-13T05:42:37.404Z,103052.38
2023-02-13T05:45:06.642Z,103056.72
2023-02-13T05:47:35.090Z,103061.09
2023-02-13T05:50:03.605Z,103054.97
2023-02-13T05:52:33.448Z,103052.38
2023-02-13T05:55:02.143Z,103050.63
2023-02-13T05:57:30.576Z,103048.00
2023-02-13T05:59:59.770Z,103054.13
2023-02-13T06:02:28.175Z,103050.66
2023-02-13T06:04:56.719Z,103061.09
2023-02-13T06:07:25.103Z,103068.06
2023-02-13T06:09:54.933Z,103068.06
2023-02-13T06:12:23.336Z,103068.06
2023-02-13T06:14:51.695Z,103067.19
2023-02-13T06:17:20.158Z,103060.22
2023-02-13T06:19:48.522Z,103063.69
2023-02-13T06:22:16.891Z,103068.94
2023-02-13T06:24:45.224Z,103057.59
2023-02-13T06:27:15.052Z,103059.34
2023-02-13T06:29:43.461Z,103065.44
2023-02-13T06:32:11.807Z,103065.47
2023-02-13T06:34:40.329Z,103068.94
2023-02-13T06:37:08.758Z,103068.91
2023-02-13T06:39:37.069Z,103069.78
2023-02-13T06:42:05.743Z,103074.13
2023-02-13T06:44:35.491Z,103075.03
2023-02-13T06:47:03.947Z,103081.13
2023-02-13T06:49:32.652Z,103084.63
2023-02-13T06:52:01.105Z,103087.22
2023-02-13T06:54:44.993Z,103093.31
2023-02-13T06:57:16.075Z,103098.56
2023-02-13T06:59:45.807Z,103095.06
2023-02-13T07:02:14.722Z,103102.03
2023-02-13T07:04:43.214Z,103108.13
2023-02-13T07:07:11.625Z,103112.50
2023-02-13T07:09:41.243Z,103120.34
2023-02-13T07:12:09.869Z,103122.09
2023-02-13T07:14:38.186Z,103118.63
2023-02-13T07:17:08.073Z,103132.59
2023-02-13T07:19:36.501Z,103125.59
2023-02-13T07:22:04.991Z,103130.81
2023-02-13T07:24:35.504Z,103134.31
2023-02-13T07:27:03.975Z,103133.44
2023-02-13T07:29:32.477Z,103135.22
2023-02-13T07:32:01.023Z,103144.78
2023-02-13T07:34:32.272Z,103143.94
2023-02-13T07:37:00.743Z,103145.69
2023-02-13T07:39:29.292Z,103143.06
2023-02-13T07:41:58.516Z,103145.66
2023-02-13T07:44:28.120Z,103149.16
2023-02-13T07:46:56.650Z,103160.44
2023-02-13T07:49:25.063Z,103156.00
2023-02-13T07:51:54.878Z,103163.72
2023-02-13T07:54:24.250Z,103153.84
2023-02-13T07:56:52.745Z,103164.06
2023-02-13T07:59:21.136Z,103156.63
2023-02-13T08:01:49.682Z,103160.53
2023-02-13T08:04:18.403Z,103158.25
2023-02-13T08:06:46.949Z,103158.44
2023-02-13T08:09:39.670Z,103168.31
2023-02-13T08:12:11.649Z,103010.88
2023-02-13T08:14:40.151Z,103168.09
2023-02-13T08:17:08.564Z,103168.44
2023-02-13T08:19:36.979Z,103169.63
2023-02-13T08:22:05.487Z,103169.06
2023-02-13T08:24:35.622Z,103134.53
2023-02-13T08:27:04.147Z,103170.53
2023-02-13T08:29:32.968Z,103174.44
2023-02-13T08:32:01.455Z,103169.06
2023-02-13T08:34:31.006Z,103170.38
2023-02-13T08:37:00.412Z,103172.03
2023-02-13T08:39:29.128Z,103159.53
2023-02-13T08:41:59.295Z,103168.03
2023-02-13T08:44:27.946Z,103160.88
2023-02-13T08:46:56.933Z,103172.03
2023-02-13T08:49:25.267Z,103167.47
2023-02-13T08:51:53.687Z,103171.94
2023-02-13T08:54:22.135Z,103169.16
2023-02-13T08:56:50.483Z,103170.59
2023-02-13T08:59:20.267Z,103168.88
2023-02-13T09:01:49.060Z,103171.16
2023-02-13T09:04:18.513Z,103169.84
2023-02-13T09:06:47.063Z,103172.91
2023-02-13T09:09:16.260Z,103174.28
2023-02-13T09:11:44.665Z,103181.88
2023-02-13T09:14:13.050Z,103179.69
2023-02-13T09:16:43.873Z,103173.13
2023-02-13T09:19:12.255Z,103171.94
2023-02-13T09:21:40.669Z,103172.38
2023-02-13T09:24:09.715Z,103170.41
2023-02-13T09:26:38.244Z,103174.53
2023-02-13T09:29:06.729Z,103166.25
2023-02-13T09:31:35.340Z,103161.72
2023-02-13T09:34:05.399Z,103173.81
2023-02-13T09:36:36.378Z,103166.44
2023-02-13T09:39:04.936Z,103159.09
2023-02-13T09:41:38.276Z,103125.97
2023-02-13T09:44:12.836Z,103124.84
2023-02-13T09:46:44.328Z,103163.38
2023-02-13T09:49:18.347Z,103118.75
2023-02-13T09:51:54.270Z,103027.56
2023-02-13T09:54:22.887Z,103157.88
2023-02-13T09:57:00.750Z,102971.88
2023-02-13T09:59:44.076Z,103038.28
2023-02-13T10:02:46.522Z,102915.25
2023-02-13T10:05:44.294Z,102967.75
2023-02-13T10:08:27.025Z,102929.22
2023-02-13T10:11:06.943Z,103114.00
2023-02-13T10:13:54.794Z,102744.22
2023-02-13T10:16:27.129Z,103089.63
2023-02-13T10:19:02.339Z,102941.25
2023-02-13T10:21:36.758Z,103152.00
2023-02-13T10:24:13.181Z,103156.84
2023-02-13T10:26:45.853Z,103147.81
2023-02-13T10:29:36.371Z,102939.34
2023-02-13T10:32:08.540Z,102949.31
2023-02-13T10:34:42.712Z,102941.75
2023-02-13T10:37:17.334Z,103072.50
2023-02-13T10:39:49.664Z,102949.63
2023-02-13T10:42:29.004Z,102944.97
2023-02-13T10:45:08.935Z,102943.69
2023-02-13T10:47:50.539Z,102943.16
2023-02-13T10:50:28.113Z,103091.09
2023-02-13T10:53:15.275Z,103124.34
2023-02-13T10:56:05.056Z,102899.44
2023-02-13T10:58:46.686Z,102908.31
2023-02-13T11:01:26.694Z,102869.78
2023-02-13T11:04:06.586Z,102923.63
2023-02-13T11:06:38.017Z,102914.38
2023-02-13T11:09:08.678Z,103121.88
2023-02-13T11:11:40.522Z,103130.94
2023-02-13T11:14:15.778Z,103127.78
2023-02-13T11:16:57.283Z,103125.69
2023-02-13T11:19:34.148Z,103087.91
2023-02-13T11:22:06.989Z,103107.03
2023-02-13T11:24:38.071Z,103120.88
2023-02-13T11:27:13.036Z,103111.78
2023-02-13T11:29:54.090Z,103070.72
2023-02-13T11:32:24.908Z,103111.63
2023-02-13T11:34:55.014Z,103093.50
2023-02-13T11:37:29.025Z,103100.91
2023-02-13T11:40:01.607Z,103092.72
2023-02-13T11:42:32.902Z,103038.34
2023-02-13T11:45:03.883Z,103078.53
2023-02-13T11:47:40.740Z,103001.38
2023-02-13T11:50:22.634Z,102876.75
2023-02-13T11:52:58.143Z,103033.91
2023-02-13T11:55:31.222Z,103061.88
2023-02-13T11:58:02.181Z,102990.91
2023-02-13T12:00:40.227Z,103084.81
2023-02-13T12:03:28.130Z,103081.56
2023-02-13T12:06:05.792Z,103069.97
2023-02-13T12:08:36.314Z,103075.63
2023-02-13T12:11:15.912Z,103051.59
2023-02-13T12:13:45.437Z,103043.66
2023-02-13T12:16:21.467Z,103065.25
2023-02-13T12:18:54.599Z,103007.00
2023-02-13T12:21:38.457Z,103057.88
2023-02-13T12:24:20.887Z,103056.31
2023-02-13T12:26:59.966Z,103001.41
2023-02-13T12:29:51.138Z,103003.69
2023-02-13T12:32:21.085Z,102970.00
2023-02-13T12:35:35.057Z,103043.00
2023-02-13T12:38:08.627Z,103046.16
2023-02-13T12:41:01.630Z,103002.22
2023-02-13T12:43:48.976Z,103011.59
2023-02-13T12:46:29.981Z,103028.06
2023-02-13T12:49:06.057Z,102962.31
2023-02-13T12:51:46.633Z,102814.06
2023-02-13T12:54:35.133Z,102830.91
2023-02-13T12:57:20.549Z,102798.84
2023-02-13T13:00:07.318Z,102993.41
2023-02-13T13:03:11.205Z,103005.66
2023-02-13T13:06:10.866Z,102932.94
2023-02-13T13:09:03.209Z,102987.50
2023-02-13T13:11:52.185Z,102825.91
2023-02-13T13:14:28.887Z,102786.81
2023-02-13T13:17:06.495Z,102888.91
2023-02-13T13:19:46.883Z,102787.72
2023-02-13T13:22:21.571Z,102778.41
2023-02-13T13:25:02.241Z,102990.19
2023-02-13T13:27:34.627Z,102906.41
2023-02-13T13:30:06.394Z,102982.13
2023-02-13T13:32:38.017Z,102956.31
2023-02-13T13:35:07.896Z,102889.44
2023-02-13T13:37:42.970Z,102897.75
2023-02-13T13:40:30.575Z,102979.75
2023-02-13T13:43:05.284Z,102850.19
2023-02-13T13:45:44.300Z,102921.03
2023-02-13T13:48:40.623Z,102929.72
2023-02-13T13:51:11.004Z,102917.16
2023-02-13T13:54:17.956Z,102856.19
2023-02-13T13:57:08.827Z,102964.09
2023-02-13T14:00:03.511Z,102959.78
2023-02-13T14:02:42.354Z,102916.72
2023-02-13T14:05:28.208Z,102933.28
2023-02-13T14:07:58.535Z,102891.50
2023-02-13T14:11:09.708Z,102952.81
2023-02-13T14:13:40.256Z,102909.97
2023-02-13T14:16:12.690Z,102761.63
2023-02-13T14:18:49.237Z,102763.56
2023-02-13T14:21:25.918Z,102750.34
2023-02-13T14:23:54.612Z,102916.63
2023-02-13T14:26:35.939Z,102917.16
2023-02-13T14:29:23.861Z,102740.94
2023-02-13T14:32:02.069Z,102740.47
2023-02-13T14:34:33.195Z,102918.44
2023-02-13T14:37:21.129Z,102766.47
2023-02-13T14:40:31.673Z,102943.31
2023-02-13T14:43:08.507Z,102937.22
2023-02-13T14:45:49.037Z,102896.75
2023-02-13T14:48:17.600Z,102935.91
2023-02-13T14:50:48.800Z,102866.38
2023-02-13T14:53:25.335Z,102939.47
2023-02-13T14:56:00.410Z,102907.59
2023-02-13T14:58:33.812Z,102927.31
2023-02-13T15:01:06.275Z,102916.81
2023-02-13T15:03:45.424Z,102928.84
2023-02-13T15:06:23.768Z,102927.03
2023-02-13T15:08:54.602Z,102715.59
2023-02-13T15:11:38.884Z,102831.94
2023-02-13T15:14:22.067Z,102929.06
2023-02-13T15:16:56.154Z,102923.06
2023-02-13T15:19:26.149Z,102919.94
2023-02-13T15:21:57.931Z,102726.53
2023-02-13T15:24:29.956Z,102836.44
2023-02-13T15:27:03.007Z,102913.59
2023-02-13T15:29:44.209Z,102862.50
2023-02-13T15:32:22.208Z,102919.41
2023-02-13T15:34:50.809Z,102915.97
2023-02-13T15:37:23.857Z,102920.69
2023-02-13T15:39:53.826Z,102920.28
2023-02-13T15:42:22.907Z,102918.56
2023-02-13T15:44:54.407Z,102857.59
2023-02-13T15:47:28.820Z,102910.41
2023-02-13T15:49:58.754Z,102863.69
2023-02-13T15:52:33.284Z,102830.50
2023-02-13T15:55:03.441Z,102916.72
2023-02-13T15:57:32.569Z,102717.63
2023-02-13T16:00:02.400Z,102888.56
2023-02-13T16:02:45.767Z,102854.97
2023-02-13T16:05:17.172Z,102860.56
2023-02-13T16:07:52.750Z,102848.53
2023-02-13T16:10:29.298Z,102847.00
2023-02-13T16:12:59.526Z,102875.13
2023-02-13T16:15:31.729Z,102927.66
2023-02-13T16:18:00.611Z,102906.28
2023-02-13T16:20:30.304Z,102937.31
2023-02-13T16:23:02.813Z,102881.72
2023-02-13T16:25:36.564Z,102933.72
2023-02-13T16:28:16.407Z,102915.41
2023-02-13T16:30:46.582Z,102924.41
2023-02-13T16:33:28.848Z,102928.53
2023-02-13T16:35:58.585Z,102912.81
2023-02-13T16:38:33.597Z,102927.75
2023-02-13T16:41:06.032Z,102934.56
2023-02-13T16:43:36.284Z,102932.47
2023-02-13T16:46:21.967Z,102931.47
2023-02-13T16:49:05.844Z,102902.03
2023-02-13T16:51:39.088Z,102937.97
2023-02-13T16:54:19.424Z,102943.72
2023-02-13T16:56:52.011Z,102926.03
2023-02-13T16:59:29.621Z,102948.41
2023-02-13T17:02:15.727Z,102954.34
2023-02-13T17:04:46.315Z,102947.81
2023-02-13T17:07:17.351Z,102943.88
2023-02-13T17:09:45.870Z,102946.94
2023-02-13T17:12:19.539Z,102944.72
2023-02-13T17:14:48.190Z,102928.59
2023-02-13T17:17:19.065Z,102926.78
2023-02-13T17:19:48.162Z,102949.88
2023-02-13T17:22:24.619Z,102953.38
2023-02-13T17:24:53.204Z,102951.28
2023-02-13T17:27:24.057Z,102950.44
2023-02-13T17:29:52.541Z,102954.78
2023-02-13T17:32:24.657Z,102960.44
2023-02-13T17:34:53.484Z,102961.50
2023-02-13T17:37:24.280Z,102930.47
2023-02-13T17:39:53.801Z,102958.38
2023-02-13T17:42:26.374Z,102922.00
2023-02-13T17:44:55.938Z,102962.03
2023-02-13T17:47:25.446Z,102962.47
2023-02-13T17:50:01.908Z,102974.78
2023-02-13T17:52:32.268Z,102971.41
2023-02-13T17:55:00.792Z,102965.25
2023-02-13T17:57:30.768Z,102971.63
2023-02-13T18:00:03.608Z,102975.06
2023-02-13T18:02:42.700Z,102980.06
2023-02-13T18:05:11.457Z,102982.63
2023-02-13T18:07:41.626Z,102980.78
2023-02-13T18:10:13.264Z,102981.50
2023-02-13T18:12:43.962Z,102981.09
2023-02-13T18:15:13.145Z,102980.81
2023-02-13T18:17:42.022Z,102978.59
2023-02-13T18:20:14.890Z,102982.19
2023-02-13T18:22:43.224Z,102983.81
2023-02-13T18:25:13.423Z,102982.59
2023-02-13T18:27:43.261Z,102969.69
2023-02-13T18:30:14.493Z,102988.47
2023-02-13T18:32:43.194Z,102991.13
2023-02-13T18:35:11.680Z,102984.25
2023-02-13T18:37:41.114Z,102993.66
2023-02-13T18:40:10.693Z,102991.44
2023-02-13T18:42:40.011Z,102993.59
2023-02-13T18:45:11.263Z,103000.78
2023-02-13T18:47:39.747Z,102997.44
2023-02-13T18:50:10.052Z,102996.38
2023-02-13T18:52:38.677Z,102997.38
2023-02-13T18:55:07.850Z,103003.31
2023-02-13T18:57:36.593Z,103004.66
2023-02-13T19:00:07.322Z,103013.56
2023-02-13T19:02:37.211Z,103010.03
2023-02-13T19:05:06.483Z,103004.84
2023-02-13T19:07:34.972Z,102995.25
2023-02-13T19:10:03.617Z,102987.75
2023-02-13T19:12:32.068Z,103013.94
2023-02-13T19:15:00.476Z,103009.56
2023-02-13T19:17:28.856Z,103018.28
2023-02-13T19:19:58.688Z,103022.75
2023-02-13T19:22:27.380Z,103021.25
2023-02-13T19:24:55.904Z,103023.38
2023-02-13T19:27:24.385Z,103025.00
2023-02-13T19:29:52.777Z,103025.72
2023-02-13T19:32:21.234Z,103032.44
2023-02-13T19:34:49.669Z,103032.56
2023-02-13T19:37:19.423Z,103032.69
2023-02-13T19:39:47.725Z,103036.00
2023-02-13T19:42:16.116Z,103037.94
2023-02-13T19:44:44.540Z,103039.75
2023-02-13T19:47:13.042Z,103040.28
2023-02-13T19:49:41.372Z,103045.94
2023-02-13T19:52:09.744Z,103049.81
2023-02-13T19:54:40.234Z,103034.22
2023-02-13T19:57:08.844Z,103044.91
2023-02-13T19:59:37.224Z,103042.50
2023-02-13T20:02:05.615Z,103054.72
2023-02-13T20:04:36.854Z,103057.38
2023-02-13T20:07:06.232Z,103051.34
2023-02-13T20:09:37.949Z,103057.25
2023-02-13T20:12:08.789Z,103058.75
2023-02-13T20:14:37.242Z,103062.78
2023-02-13T20:17:06.034Z,103048.53
2023-02-13T20:19:34.414Z,103067.34
2023-02-13T20:22:02.980Z,103063.09
2023-02-13T20:24:33.171Z,102926.50
2023-02-13T20:27:01.584Z,103059.41
2023-02-13T20:29:31.585Z,103059.50
2023-02-13T20:32:00.204Z,103062.91
2023-02-13T20:34:31.603Z,103063.06
2023-02-13T20:37:06.092Z,103045.06
2023-02-13T20:39:34.588Z,103068.69
2023-02-13T20:42:03.168Z,103053.94
2023-02-13T20:44:33.205Z,103061.19
2023-02-13T20:47:01.618Z,103063.72
2023-02-13T20:49:30.642Z,103063.00
2023-02-13T20:51:59.132Z,103070.09
2023-02-13T20:54:27.569Z,103072.00
2023-02-13T20:56:56.068Z,103074.69
2023-02-13T20:59:24.448Z,103065.28
2023-02-13T21:01:54.409Z,103071.63
2023-02-13T21:04:22.865Z,103062.09
2023-02-13T21:06:51.341Z,103064.13
2023-02-13T21:09:20.346Z,103071.31
2023-02-13T21:11:48.924Z,103063.53
2023-02-13T21:14:17.327Z,103066.31
2023-02-13T21:16:45.873Z,103074.47
2023-02-13T21:19:19.094Z,102905.06
2023-02-13T21:21:48.262Z,103065.75
2023-02-13T21:24:18.768Z,103054.50
2023-02-13T21:26:48.132Z,103072.00
2023-02-13T21:29:16.591Z,103059.81
2023-02-13T21:31:47.934Z,103069.56
2023-02-13T21:34:18.853Z,103072.25
2023-02-13T21:36:47.372Z,103074.88
2023-02-13T21:39:15.948Z,103074.72
2023-02-13T21:41:45.907Z,103070.97
2023-02-13T21:44:15.281Z,103072.59
2023-02-13T21:46:45.068Z,103078.69
2023-02-13T21:49:15.165Z,103078.75
2023-02-13T21:51:45.509Z,103075.47
2023-02-13T21:54:14.282Z,103081.94
2023-02-13T21:56:44.276Z,102956.09
2023-02-13T21:59:15.915Z,103078.81
2023-02-13T22:01:50.299Z,103053.69
2023-02-13T22:04:19.527Z,103081.53
2023-02-13T22:06:52.222Z,103080.63
2023-02-13T22:09:22.772Z,103080.56
2023-02-13T22:11:52.069Z,103079.78
2023-02-13T22:14:20.566Z,103088.59
2023-02-13T22:16:51.374Z,103081.66
2023-02-13T22:19:20.399Z,103072.25
2023-02-13T22:21:50.479Z,103074.75
2023-02-13T22:24:18.932Z,103076.47
2023-02-13T22:26:47.290Z,103075.69
2023-02-13T22:29:18.616Z,103073.16
2023-02-13T22:31:48.191Z,103076.75
2023-02-13T22:34:17.002Z,103072.34
2023-02-13T22:36:46.015Z,103067.16
2023-02-13T22:39:16.590Z,103069.88
2023-02-13T22:41:45.965Z,103067.34
2023-02-13T22:44:14.446Z,103072.59
2023-02-13T22:46:43.018Z,103073.50
2023-02-13T22:49:11.403Z,103080.50
2023-02-13T22:51:39.771Z,103072.63
2023-02-13T22:54:08.204Z,103083.16
2023-02-13T22:56:38.037Z,103087.56
2023-02-13T22:59:06.557Z,103085.84
2023-02-13T23:01:35.619Z,103089.44
2023-02-13T23:04:04.063Z,103077.22
2023-02-13T23:06:32.460Z,103087.75
2023-02-13T23:09:02.054Z,103095.66
2023-02-13T23:11:47.650Z,103091.19
2023-02-13T23:14:18.478Z,103091.97
2023-02-13T23:17:04.561Z,103090.16
2023-02-13T23:19:33.364Z,103100.75
2023-02-13T23:22:01.938Z,103100.75
2023-02-13T23:24:31.937Z,103100.69
2023-02-13T23:27:01.192Z,103108.63
2023-02-13T23:29:31.353Z,103107.84
2023-02-13T23:31:59.921Z,103108.78
2023-02-13T23:34:28.414Z,103108.69
2023-02-13T23:36:56.928Z,103112.25
2023-02-13T23:39:25.496Z,103107.94
2023-02-13T23:41:53.934Z,103107.06
2023-02-13T23:44:22.369Z,103106.28
2023-02-13T23:46:52.154Z,103107.22
2023-02-13T23:49:21.105Z,103111.72
2023-02-13T23:51:49.900Z,103110.88
2023-02-13T23:54:19.767Z,103114.41
2023-02-13T23:56:50.108Z,103108.34
2023-02-13T23:59:19.397Z,103108.28
